createdAt,value
2022-12-26T00:01:45.913Z,26.35
2022-12-26T00:04:53.155Z,29.92
2022-12-26T00:07:57.748Z,28.83
2022-12-26T00:11:00.278Z,30.05
2022-12-26T00:14:03.824Z,32.60
2022-12-26T00:17:06.424Z,25.08
2022-12-26T00:20:10.019Z,26.02
2022-12-26T00:23:13.925Z,39.25
2022-12-26T00:26:17.651Z,33.55
2022-12-26T00:29:20.224Z,35.85
2022-12-26T00:32:22.763Z,29.33
2022-12-26T00:35:25.295Z,35.58
2022-12-26T00:38:29.223Z,36.63
2022-12-26T00:41:32.016Z,24.88
2022-12-26T00:44:34.707Z,30.35
2022-12-26T00:47:37.343Z,32.53
2022-12-26T00:50:39.966Z,31.73
2022-12-26T00:53:43.908Z,28.27
2022-12-26T00:56:46.587Z,33.67
2022-12-26T00:59:49.098Z,33.15
2022-12-26T01:02:51.796Z,28.13
2022-12-26T01:05:54.416Z,30.20
2022-12-26T01:08:59.462Z,31.60
2022-12-26T01:12:01.993Z,32.03
2022-12-26T01:15:05.052Z,23.95
2022-12-26T01:18:07.649Z,24.45
2022-12-26T01:21:11.398Z,30.95
2022-12-26T01:24:15.347Z,29.60
2022-12-26T01:27:17.880Z,28.52
2022-12-26T01:30:20.655Z,24.40
2022-12-26T01:33:23.264Z,28.83
2022-12-26T01:36:25.832Z,24.05
2022-12-26T01:39:29.726Z,23.98
2022-12-26T01:42:37.376Z,23.58
2022-12-26T01:45:40.100Z,23.13
2022-12-26T01:48:43.141Z,19.67
2022-12-26T01:51:47.295Z,25.05
2022-12-26T01:54:51.580Z,21.55
2022-12-26T01:57:56.169Z,18.15
2022-12-26T02:00:58.820Z,22.92
2022-12-26T02:04:30.503Z,19.00
2022-12-26T02:07:33.241Z,23.73
2022-12-26T02:10:40.006Z,24.20
2022-12-26T02:13:42.602Z,18.88
2022-12-26T02:16:45.287Z,21.80
2022-12-26T02:19:50.676Z,19.33
2022-12-26T02:23:31.610Z,19.55
2022-12-26T02:27:04.697Z,20.30
2022-12-26T02:30:09.520Z,16.98
2022-12-26T02:33:33.380Z,20.10
2022-12-26T02:36:44.235Z,19.75
2022-12-26T02:39:55.805Z,21.02
2022-12-26T02:43:00.139Z,15.27
2022-12-26T02:46:38.032Z,20.20
2022-12-26T02:50:07.633Z,17.85
2022-12-26T02:53:41.917Z,16.50
2022-12-26T02:57:04.409Z,20.40
2022-12-26T03:00:26.796Z,23.52
2022-12-26T03:03:47.904Z,18.35
2022-12-26T03:07:11.909Z,15.68
2022-12-26T03:10:35.141Z,16.65
2022-12-26T03:13:37.738Z,18.10
2022-12-26T03:16:57.912Z,20.63
2022-12-26T03:20:02.518Z,19.77
2022-12-26T03:23:08.170Z,17.40
2022-12-26T03:26:31.024Z,18.60
2022-12-26T03:29:53.591Z,13.70
2022-12-26T03:32:56.565Z,13.63
2022-12-26T03:35:59.183Z,15.43
2022-12-26T03:39:08.417Z,15.93
2022-12-26T03:42:29.279Z,12.40
2022-12-26T03:46:01.475Z,16.90
2022-12-26T03:49:24.895Z,12.85
2022-12-26T03:52:46.803Z,11.75
2022-12-26T03:56:13.905Z,9.27
2022-12-26T03:59:36.030Z,12.27
2022-12-26T04:02:56.010Z,10.95
2022-12-26T04:06:16.744Z,15.65
2022-12-26T04:09:38.540Z,5.55
2022-12-26T04:13:00.152Z,11.43
2022-12-26T04:16:33.685Z,7.75
2022-12-26T04:19:58.108Z,8.52
2022-12-26T04:23:20.625Z,8.02
2022-12-26T04:26:45.019Z,6.07
2022-12-26T04:30:06.694Z,11.25
2022-12-26T04:33:29.615Z,6.60
2022-12-26T04:36:51.113Z,12.50
2022-12-26T04:40:11.871Z,8.20
2022-12-26T04:43:50.052Z,8.73
2022-12-26T04:46:55.193Z,5.15
2022-12-26T04:50:12.108Z,3.75
2022-12-26T04:53:15.644Z,6.28
2022-12-26T04:56:18.697Z,8.05
2022-12-26T04:59:21.516Z,7.90
2022-12-26T05:02:43.271Z,8.23
2022-12-26T05:06:03.949Z,5.80
2022-12-26T05:09:24.341Z,11.60
2022-12-26T05:12:26.926Z,8.43
2022-12-26T05:15:49.507Z,2.40
2022-12-26T05:19:11.461Z,10.38
2022-12-26T05:22:31.552Z,3.30
2022-12-26T05:25:52.922Z,4.32
2022-12-26T05:28:57.297Z,3.80
2022-12-26T05:32:00.915Z,2.95
2022-12-26T05:35:04.237Z,10.65
2022-12-26T05:38:06.830Z,4.28
2022-12-26T05:41:09.399Z,5.93
2022-12-26T05:44:11.979Z,3.97
2022-12-26T05:47:14.555Z,4.60
2022-12-26T05:50:18.634Z,6.75
2022-12-26T05:53:21.208Z,6.95
2022-12-26T05:56:23.870Z,4.95
2022-12-26T05:59:26.612Z,6.40
2022-12-26T06:02:30.568Z,5.85
2022-12-26T06:05:34.663Z,4.57
2022-12-26T06:08:37.278Z,5.80
2022-12-26T06:11:45.280Z,4.75
2022-12-26T06:14:51.238Z,5.22
2022-12-26T06:17:55.329Z,6.55
2022-12-26T06:20:59.200Z,3.88
2022-12-26T06:24:02.213Z,4.57
2022-12-26T06:27:04.757Z,4.10
2022-12-26T06:30:08.002Z,2.50
2022-12-26T06:33:10.577Z,7.43
2022-12-26T06:36:15.290Z,5.30
2022-12-26T06:39:17.838Z,4.88
2022-12-26T06:42:20.411Z,7.10
2022-12-26T06:45:23.027Z,8.45
2022-12-26T06:48:25.642Z,6.28
2022-12-26T06:51:29.617Z,4.80
2022-12-26T06:54:32.193Z,5.78
2022-12-26T06:57:34.729Z,5.95
2022-12-26T07:00:37.364Z,7.72
2022-12-26T07:03:44.771Z,11.20
2022-12-26T07:06:52.619Z,8.27
2022-12-26T07:09:55.198Z,10.57
2022-12-26T07:12:57.790Z,3.42
2022-12-26T07:16:00.678Z,5.82
2022-12-26T07:19:03.337Z,7.28
2022-12-26T07:22:07.199Z,10.18
2022-12-26T07:25:10.359Z,6.93
2022-12-26T07:28:12.933Z,6.20
2022-12-26T07:31:17.327Z,8.60
2022-12-26T07:34:19.914Z,5.45
2022-12-26T07:37:23.795Z,7.63
2022-12-26T07:40:26.391Z,10.20
2022-12-26T07:43:28.983Z,5.65
2022-12-26T07:46:31.629Z,3.88
2022-12-26T07:49:34.230Z,4.80
2022-12-26T07:52:38.168Z,9.32
2022-12-26T07:55:40.778Z,7.20
2022-12-26T07:58:43.327Z,5.93
2022-12-26T08:01:45.953Z,8.55
2022-12-26T08:04:48.669Z,3.35
2022-12-26T08:07:52.600Z,8.77
2022-12-26T08:10:59.778Z,2.13
2022-12-26T08:14:02.464Z,4.47
2022-12-26T08:17:05.103Z,4.82
2022-12-26T08:20:08.467Z,7.30
2022-12-26T08:23:12.347Z,7.95
2022-12-26T08:26:20.681Z,4.78
2022-12-26T08:29:23.284Z,7.00
2022-12-26T08:32:25.963Z,4.10
2022-12-26T08:35:30.099Z,11.60
2022-12-26T08:38:34.269Z,6.93
2022-12-26T08:41:36.958Z,12.75
2022-12-26T08:44:39.551Z,10.32
2022-12-26T08:47:42.095Z,11.20
2022-12-26T08:50:44.635Z,20.58
2022-12-26T08:53:49.493Z,23.30
2022-12-26T08:56:52.230Z,22.40
2022-12-26T08:59:54.856Z,20.00
2022-12-26T09:02:57.500Z,14.60
2022-12-26T09:06:05.592Z,7.68
2022-12-26T09:09:11.678Z,9.23
2022-12-26T09:12:14.318Z,14.45
2022-12-26T09:15:17.041Z,15.85
2022-12-26T09:18:19.887Z,10.07
2022-12-26T09:21:22.437Z,12.80
2022-12-26T09:24:26.352Z,11.77
2022-12-26T09:27:29.635Z,17.65
2022-12-26T09:30:32.246Z,9.55
2022-12-26T09:33:37.551Z,15.38
2022-12-26T09:36:40.279Z,15.10
2022-12-26T09:39:44.197Z,16.48
2022-12-26T09:42:50.822Z,7.25
2022-12-26T09:46:00.404Z,8.70
2022-12-26T09:49:05.439Z,9.20
2022-12-26T09:52:12.652Z,6.88
2022-12-26T09:55:31.419Z,11.18
2022-12-26T09:58:34.992Z,9.82
2022-12-26T10:01:37.691Z,9.82
2022-12-26T10:04:40.506Z,8.25
2022-12-26T10:07:45.122Z,7.55
2022-12-26T10:10:51.447Z,4.60
2022-12-26T10:13:56.692Z,5.75
2022-12-26T10:17:01.773Z,9.75
2022-12-26T10:20:14.000Z,10.43
2022-12-26T10:23:24.120Z,9.52
2022-12-26T10:26:30.810Z,11.02
2022-12-26T10:29:35.888Z,11.27
2022-12-26T10:32:40.099Z,7.43
2022-12-26T10:35:43.955Z,10.52
2022-12-26T10:38:47.118Z,9.43
2022-12-26T10:41:53.103Z,9.23
2022-12-26T10:44:55.686Z,5.47
2022-12-26T10:47:58.992Z,14.48
2022-12-26T10:51:01.533Z,11.27
2022-12-26T10:54:04.059Z,5.60
2022-12-26T10:57:08.359Z,5.35
2022-12-26T11:00:15.739Z,4.22
2022-12-26T11:03:19.118Z,6.82
2022-12-26T11:06:21.787Z,5.45
2022-12-26T11:09:27.328Z,6.05
2022-12-26T11:12:38.022Z,3.28
2022-12-26T11:15:41.336Z,10.98
2022-12-26T11:18:48.073Z,7.90
2022-12-26T11:21:50.600Z,5.85
2022-12-26T11:25:14.306Z,9.85
2022-12-26T11:28:25.421Z,7.10
2022-12-26T11:31:30.912Z,9.25
2022-12-26T11:34:35.217Z,8.98
2022-12-26T11:37:43.899Z,8.90
2022-12-26T11:41:08.639Z,4.97
2022-12-26T11:44:19.531Z,6.18
2022-12-26T11:47:23.018Z,10.57
2022-12-26T11:50:27.233Z,3.17
2022-12-26T11:53:31.503Z,5.32
2022-12-26T11:56:34.074Z,4.28
2022-12-26T11:59:37.999Z,10.13
2022-12-26T12:02:40.578Z,6.88
2022-12-26T12:05:46.817Z,3.15
2022-12-26T12:08:53.124Z,3.38
2022-12-26T12:11:57.786Z,5.82
2022-12-26T12:15:05.069Z,3.83
2022-12-26T12:18:10.942Z,10.27
2022-12-26T12:21:16.112Z,4.45
2022-12-26T12:24:27.282Z,9.73
2022-12-26T12:27:31.420Z,9.60
2022-12-26T12:30:39.668Z,3.95
2022-12-26T12:33:46.670Z,6.93
2022-12-26T12:36:55.014Z,3.78
2022-12-26T12:40:01.950Z,7.90
2022-12-26T12:43:09.060Z,8.32
2022-12-26T12:46:18.181Z,4.38
2022-12-26T12:49:33.409Z,5.65
2022-12-26T12:52:42.373Z,3.33
2022-12-26T12:55:53.148Z,4.38
2022-12-26T12:58:58.187Z,5.50
2022-12-26T13:02:11.047Z,5.63
2022-12-26T13:05:26.950Z,9.77
2022-12-26T13:08:31.661Z,3.28
2022-12-26T13:11:35.868Z,3.85
2022-12-26T13:14:39.600Z,2.65
2022-12-26T13:17:46.508Z,7.40
2022-12-26T13:20:49.901Z,5.78
2022-12-26T13:24:12.336Z,6.38
2022-12-26T13:27:16.478Z,3.53
2022-12-26T13:30:19.105Z,5.68
2022-12-26T13:33:23.151Z,10.98
2022-12-26T13:36:39.397Z,9.10
2022-12-26T13:39:42.002Z,4.50
2022-12-26T13:43:03.405Z,4.93
2022-12-26T13:46:05.993Z,6.90
2022-12-26T13:49:28.591Z,11.30
2022-12-26T13:52:34.842Z,8.60
2022-12-26T13:55:44.432Z,7.68
2022-12-26T13:58:51.020Z,7.43
2022-12-26T14:01:56.351Z,10.40
2022-12-26T14:05:02.556Z,12.18
2022-12-26T14:08:07.747Z,9.63
2022-12-26T14:11:34.386Z,16.25
2022-12-26T14:14:49.478Z,13.90
2022-12-26T14:18:01.892Z,8.30
2022-12-26T14:21:21.051Z,4.60
2022-12-26T14:24:28.565Z,7.55
2022-12-26T14:30:42.099Z,6.65
2022-12-26T14:33:48.313Z,14.50
2022-12-26T14:36:54.254Z,9.50
2022-12-26T14:40:28.509Z,7.03
2022-12-26T14:43:37.696Z,8.30
2022-12-26T14:47:01.674Z,7.40
2022-12-26T14:50:45.869Z,10.32
2022-12-26T14:54:05.828Z,7.95
2022-12-26T14:57:36.939Z,7.18
2022-12-26T15:00:40.608Z,7.93
2022-12-26T15:03:45.655Z,6.32
2022-12-26T15:07:14.090Z,12.00
2022-12-26T15:10:51.704Z,4.90
2022-12-26T15:14:11.745Z,7.88
2022-12-26T15:17:17.985Z,16.30
2022-12-26T15:20:47.667Z,5.65
2022-12-26T15:24:19.285Z,14.00
2022-12-26T15:27:40.369Z,7.82
2022-12-26T15:31:05.918Z,7.70
2022-12-26T15:34:31.392Z,11.05
2022-12-26T15:37:57.397Z,11.00
2022-12-26T15:41:11.700Z,12.93
2022-12-26T15:44:24.770Z,7.65
2022-12-26T15:47:29.807Z,6.18
2022-12-26T15:50:33.912Z,6.63
2022-12-26T15:53:51.813Z,8.55
2022-12-26T16:00:12.995Z,11.25
2022-12-26T16:03:24.944Z,14.40
2022-12-26T16:06:33.583Z,13.85
2022-12-26T16:09:43.409Z,10.32
2022-12-26T16:12:58.518Z,9.32
2022-12-26T16:16:02.964Z,17.60
2022-12-26T16:19:18.582Z,11.23
2022-12-26T16:22:43.710Z,6.30
2022-12-26T16:25:47.712Z,15.07
2022-12-26T16:28:50.253Z,14.52
2022-12-26T16:31:55.573Z,8.35
2022-12-26T16:34:58.685Z,13.35
2022-12-26T16:38:02.230Z,13.10
2022-12-26T16:41:06.837Z,10.43
2022-12-26T16:44:30.057Z,13.85
2022-12-26T16:47:34.578Z,16.45
2022-12-26T16:50:45.240Z,16.30
2022-12-26T16:53:47.833Z,8.65
2022-12-26T16:56:51.205Z,6.30
2022-12-26T16:59:55.015Z,8.35
2022-12-26T17:02:59.350Z,8.15
2022-12-26T17:06:05.541Z,26.30
2022-12-26T17:09:08.805Z,9.52
2022-12-26T17:12:20.981Z,13.13
2022-12-26T17:15:25.040Z,12.20
2022-12-26T17:18:39.378Z,11.60
2022-12-26T17:21:41.926Z,6.90
2022-12-26T17:24:44.740Z,12.00
2022-12-26T17:27:47.971Z,9.32
2022-12-26T17:30:53.169Z,9.30
2022-12-26T17:33:57.730Z,4.78
2022-12-26T17:37:19.863Z,5.90
2022-12-26T17:40:24.995Z,6.63
2022-12-26T17:43:31.232Z,4.18
2022-12-26T17:46:33.849Z,5.07
2022-12-26T17:49:37.811Z,7.82
2022-12-26T17:52:40.447Z,6.50
2022-12-26T17:55:43.000Z,6.20
2022-12-26T17:58:45.599Z,7.10
2022-12-26T18:01:48.312Z,9.80
2022-12-26T18:04:52.347Z,4.18
2022-12-26T18:07:54.885Z,7.07
2022-12-26T18:10:57.621Z,4.28
2022-12-26T18:14:00.225Z,5.30
2022-12-26T18:17:02.807Z,4.32
2022-12-26T18:20:07.768Z,3.65
2022-12-26T18:23:11.025Z,8.70
2022-12-26T18:26:17.495Z,4.80
2022-12-26T18:29:21.599Z,5.03
2022-12-26T18:32:25.302Z,9.30
2022-12-26T18:35:29.187Z,6.03
2022-12-26T18:38:31.740Z,4.60
2022-12-26T18:41:34.324Z,9.65
2022-12-26T18:44:36.855Z,6.05
2022-12-26T18:47:39.475Z,17.33
2022-12-26T18:50:43.778Z,4.63
2022-12-26T18:53:46.704Z,7.03
2022-12-26T18:56:49.280Z,15.52
2022-12-26T18:59:51.976Z,4.32
2022-12-26T19:02:55.497Z,4.03
2022-12-26T19:05:59.445Z,6.75
2022-12-26T19:09:01.995Z,10.23
2022-12-26T19:12:04.842Z,8.75
2022-12-26T19:15:08.380Z,6.60
2022-12-26T19:18:10.991Z,2.55
2022-12-26T19:21:15.291Z,6.88
2022-12-26T19:24:17.840Z,5.22
2022-12-26T19:27:20.467Z,6.28
2022-12-26T19:30:23.261Z,10.85
2022-12-26T19:33:25.812Z,10.23
2022-12-26T19:36:29.751Z,7.40
2022-12-26T19:39:32.368Z,5.53
2022-12-26T19:42:37.176Z,9.15
2022-12-26T19:45:39.769Z,9.80
2022-12-26T19:48:42.382Z,7.22
2022-12-26T19:51:47.080Z,15.27
2022-12-26T19:54:49.659Z,7.47
2022-12-26T19:57:54.749Z,12.52
2022-12-26T20:00:57.428Z,7.82
2022-12-26T20:04:01.686Z,9.80
2022-12-26T20:07:05.607Z,8.98
2022-12-26T20:10:08.393Z,8.20
2022-12-26T20:13:10.961Z,9.07
2022-12-26T20:16:37.409Z,10.85
2022-12-26T20:19:37.123Z,6.43
2022-12-26T20:22:41.101Z,12.07
2022-12-26T20:25:43.645Z,6.53
2022-12-26T20:28:46.300Z,13.95
2022-12-26T20:31:49.349Z,9.85
2022-12-26T20:34:51.944Z,9.25
2022-12-26T20:37:55.917Z,6.43
2022-12-26T20:40:58.483Z,12.23
2022-12-26T20:44:01.018Z,9.00
2022-12-26T20:47:04.261Z,8.90
2022-12-26T20:50:08.023Z,12.07
2022-12-26T20:53:11.963Z,11.38
2022-12-26T20:56:14.549Z,16.13
2022-12-26T20:59:17.256Z,8.88
2022-12-26T21:02:20.025Z,9.23
2022-12-26T21:05:22.667Z,15.27
2022-12-26T21:08:26.640Z,16.08
2022-12-26T21:11:30.470Z,7.80
2022-12-26T21:14:32.991Z,11.45
2022-12-26T21:17:36.836Z,12.90
2022-12-26T21:20:39.436Z,16.60
2022-12-26T21:23:43.410Z,8.98
2022-12-26T21:26:46.163Z,17.98
2022-12-26T21:29:48.888Z,9.52
2022-12-26T21:32:51.821Z,7.65
2022-12-26T21:35:54.827Z,4.13
2022-12-26T21:38:58.764Z,10.20
2022-12-26T21:42:01.506Z,7.75
2022-12-26T21:45:04.242Z,14.98
2022-12-26T21:48:07.411Z,20.30
2022-12-26T21:51:10.324Z,12.05
2022-12-26T21:54:31.695Z,10.02
2022-12-26T21:57:35.024Z,7.28
2022-12-26T22:00:37.635Z,9.38
2022-12-26T22:03:57.692Z,12.02
2022-12-26T22:07:00.235Z,13.25
2022-12-26T22:10:04.480Z,7.78
2022-12-26T22:13:06.248Z,16.45
2022-12-26T22:16:10.515Z,16.20
2022-12-26T22:19:13.169Z,8.75
2022-12-26T22:22:15.770Z,15.20
2022-12-26T22:25:19.951Z,15.43
2022-12-26T22:28:23.567Z,16.05
2022-12-26T22:31:28.130Z,6.38
2022-12-26T22:34:30.749Z,10.48
2022-12-26T22:37:33.311Z,9.63
2022-12-26T22:40:37.231Z,11.75
2022-12-26T22:43:40.607Z,12.88
2022-12-26T22:46:43.300Z,7.18
2022-12-26T22:49:45.927Z,7.22
2022-12-26T22:52:48.531Z,3.03
2022-12-26T22:55:57.916Z,7.60
2022-12-26T22:59:00.940Z,6.22
2022-12-26T23:02:03.621Z,8.82
2022-12-26T23:05:07.359Z,6.10
2022-12-26T23:08:11.935Z,17.83
2022-12-26T23:11:16.319Z,9.30
2022-12-26T23:14:20.271Z,19.92
2022-12-26T23:17:36.756Z,12.98
2022-12-26T23:20:56.776Z,15.35
2022-12-26T23:23:59.319Z,9.55
2022-12-26T23:27:19.229Z,12.27
2022-12-26T23:30:23.088Z,21.00
2022-12-26T23:33:25.844Z,15.35
2022-12-26T23:36:28.438Z,7.68
2022-12-26T23:39:31.082Z,13.23
2022-12-26T23:42:35.033Z,15.98
2022-12-26T23:45:37.620Z,17.95
2022-12-26T23:48:40.166Z,13.30
2022-12-26T23:51:42.827Z,17.02
2022-12-26T23:54:45.392Z,14.23
2022-12-26T23:57:49.321Z,12.43
